Time;durP1;ratioP1;P1;durP2;ratioP2;P2;SDS_P1;SDS_P2;PMS_P1;PMS_P2;Temp;Humidity;BMP_temperature;BMP_pressure;BME280_temperature;BME280_humidity;BME280_pressure;Samples;Min_cycle;Max_cycle;Signal;HPM_P1;HPM_P2
2023/09/25 00:01:16;;;;;;;2.35;1.20;;;20.60;46.00;;;;;;5108686;27;45276;-67
2023/09/25 00:03:43;;;;;;;2.00;1.30;;;20.60;46.00;;;;;;5108795;27;45494;-68
2023/09/25 00:06:10;;;;;;;2.30;1.00;;;20.60;46.00;;;;;;5108522;27;45639;-66
2023/09/25 00:08:39;;;;;;;2.92;1.48;;;20.60;46.10;;;;;;5108380;27;45292;-65
2023/09/25 00:11:06;;;;;;;2.03;1.13;;;20.60;46.10;;;;;;5108391;27;45454;-66
2023/09/25 00:13:32;;;;;;;1.27;0.98;;;20.60;46.10;;;;;;5108412;27;45344;-66
2023/09/25 00:15:59;;;;;;;4.28;1.38;;;20.60;46.10;;;;;;5108258;27;45496;-66
2023/09/25 00:18:26;;;;;;;1.00;0.90;;;20.60;46.20;;;;;;5108408;27;45334;-66
2023/09/25 00:20:54;;;;;;;2.72;1.08;;;20.60;46.20;;;;;;5108175;27;45263;-66
2023/09/25 00:23:21;;;;;;;2.22;1.27;;;20.60;46.10;;;;;;5108524;27;45406;-66
2023/09/25 00:25:50;;;;;;;2.50;0.93;;;20.50;46.10;;;;;;5108382;27;45393;-66
2023/09/25 00:28:17;;;;;;;1.10;0.95;;;20.50;46.10;;;;;;5108674;27;45315;-66
2023/09/25 00:30:44;;;;;;;3.33;1.20;;;20.60;46.20;;;;;;5108367;27;45216;-65
2023/09/25 00:33:12;;;;;;;1.48;1.05;;;20.50;46.20;;;;;;5108828;27;45447;-68
2023/09/25 00:35:42;;;;;;;1.30;1.20;;;20.50;46.20;;;;;;5107930;27;46377;-65
2023/09/25 00:38:09;;;;;;;1.35;0.90;;;20.50;46.30;;;;;;5108700;27;44681;-65
2023/09/25 00:40:36;;;;;;;1.73;1.10;;;20.50;46.20;;;;;;5108943;27;45640;-66
2023/09/25 00:43:05;;;;;;;3.80;0.98;;;20.50;46.30;;;;;;5108615;27;45298;-69
2023/09/25 00:45:32;;;;;;;9.43;1.58;;;20.50;46.30;;;;;;5108390;27;45454;-64
2023/09/25 00:47:59;;;;;;;5.30;1.60;;;20.50;46.50;;;;;;5108311;27;45311;-64
2023/09/25 00:50:29;;;;;;;10.20;1.10;;;20.50;46.50;;;;;;5112121;27;45474;-67
2023/09/25 00:52:56;;;;;;;4.38;0.95;;;20.50;46.50;;;;;;5107478;27;45538;-65
2023/09/25 00:55:23;;;;;;;3.42;1.38;;;20.40;46.40;;;;;;5107581;27;46624;-66
2023/09/25 00:57:50;;;;;;;5.03;1.42;;;20.40;46.40;;;;;;5087402;27;45326;-66
2023/09/25 01:00:18;;;;;;;10.07;1.30;;;20.40;46.40;;;;;;5087652;27;45328;-65
2023/09/25 01:02:46;;;;;;;3.72;1.05;;;20.40;46.40;;;;;;5087283;27;45281;-66
2023/09/25 01:05:13;;;;;;;2.92;0.95;;;20.40;46.40;;;;;;5087361;27;45488;-67
2023/09/25 01:07:40;;;;;;;4.47;1.33;;;20.40;46.50;;;;;;5087183;27;45305;-64
2023/09/25 01:10:07;;;;;;;2.42;1.00;;;20.30;47.00;;;;;;5087375;27;45350;-66
2023/09/25 01:12:34;;;;;;;3.38;1.00;;;20.30;46.50;;;;;;5087402;27;45736;-67
2023/09/25 01:15:02;;;;;;;3.47;1.50;;;20.30;46.50;;;;;;5087051;27;45424;-65
2023/09/25 01:17:30;;;;;;;1.30;0.90;;;20.30;46.50;;;;;;5087111;27;45368;-66
2023/09/25 01:19:57;;;;;;;2.30;1.10;;;20.30;46.50;;;;;;5104361;27;45450;-66
2023/09/25 01:22:25;;;;;;;2.70;1.10;;;20.30;46.50;;;;;;5107674;27;45419;-65
2023/09/25 01:24:52;;;;;;;1.30;0.82;;;20.30;46.50;;;;;;5107008;27;46645;-65
2023/09/25 01:27:19;;;;;;;0.82;0.80;;;20.30;46.50;;;;;;5107622;27;45449;-65
2023/09/25 01:29:46;;;;;;;3.42;1.10;;;20.20;46.40;;;;;;5107476;27;45318;-65
2023/09/25 01:32:12;;;;;;;3.45;0.90;;;20.20;46.50;;;;;;5107244;27;45283;-65
2023/09/25 01:34:39;;;;;;;1.98;0.82;;;20.20;46.50;;;;;;5106687;27;47285;-66
2023/09/25 01:37:06;;;;;;;1.73;0.73;;;20.20;46.40;;;;;;5096284;27;46445;-65
2023/09/25 01:39:35;;;;;;;1.75;0.90;;;20.20;46.40;;;;;;5087362;28;45311;-64
2023/09/25 01:42:03;;;;;;;1.17;1.00;;;20.20;46.50;;;;;;5086856;27;45467;-65
2023/09/25 01:44:30;;;;;;;0.90;0.90;;;20.20;46.50;;;;;;5086933;28;45361;-64
2023/09/25 01:46:57;;;;;;;1.50;0.80;;;20.20;46.60;;;;;;5087260;28;45380;-65
2023/09/25 01:49:24;;;;;;;2.63;0.88;;;20.20;46.50;;;;;;5087201;28;45367;-65
2023/09/25 01:51:51;;;;;;;1.38;0.93;;;20.20;46.50;;;;;;5087529;28;45199;-65
2023/09/25 01:54:18;;;;;;;3.20;1.10;;;20.20;47.10;;;;;;5086882;28;45614;-65
2023/09/25 01:56:47;;;;;;;0.60;0.60;;;20.10;46.50;;;;;;5087011;28;45303;-65
2023/09/25 01:59:14;;;;;;;1.38;0.60;;;20.10;46.50;;;;;;5087204;28;45319;-66
2023/09/25 02:01:41;;;;;;;3.30;0.95;;;20.10;46.60;;;;;;5087275;28;45475;-65
2023/09/25 02:04:08;;;;;;;2.20;0.70;;;20.10;47.20;;;;;;5086827;28;46240;-66
2023/09/25 02:06:35;;;;;;;1.05;0.80;;;20.10;46.50;;;;;;5086894;28;45240;-65
2023/09/25 02:09:01;;;;;;;1.38;0.90;;;20.10;46.60;;;;;;5086927;28;45311;-65
2023/09/25 02:11:28;;;;;;;2.13;0.82;;;20.10;46.50;;;;;;5087086;28;45252;-65
2023/09/25 02:13:57;;;;;;;3.22;0.77;;;20.00;46.50;;;;;;5086658;28;46729;-65
2023/09/25 02:16:23;;;;;;;0.95;0.73;;;20.10;46.50;;;;;;5086965;27;45394;-66
2023/09/25 02:18:50;;;;;;;3.20;0.98;;;20.00;46.50;;;;;;5087196;28;45407;-65
2023/09/25 02:21:17;;;;;;;1.17;0.65;;;20.00;46.50;;;;;;5086998;28;45307;-65
2023/09/25 02:23:44;;;;;;;1.58;0.93;;;20.00;46.50;;;;;;5086505;28;46715;-65
2023/09/25 02:26:11;;;;;;;1.88;0.90;;;20.00;46.50;;;;;;5086617;28;45306;-66
2023/09/25 02:28:38;;;;;;;3.17;0.77;;;20.00;46.60;;;;;;5086809;28;45342;-65
2023/09/25 02:31:07;;;;;;;0.63;0.60;;;20.00;46.60;;;;;;5086956;28;45352;-65
2023/09/25 02:33:34;;;;;;;0.70;0.70;;;20.00;46.60;;;;;;5086359;28;45739;-65
2023/09/25 02:36:05;;;;;;;2.75;0.85;;;19.90;47.20;;;;;;5086197;28;45319;-65
2023/09/25 02:38:31;;;;;;;0.90;0.55;;;19.90;46.60;;;;;;5086581;28;45512;-66
2023/09/25 02:40:58;;;;;;;0.80;0.80;;;19.90;46.60;;;;;;5086616;28;45419;-65
2023/09/25 02:43:25;;;;;;;0.75;0.60;;;19.90;46.60;;;;;;5086115;28;46365;-65
2023/09/25 02:45:52;;;;;;;0.63;0.57;;;19.90;46.60;;;;;;5086277;28;45269;-65
2023/09/25 02:48:21;;;;;;;1.50;0.63;;;19.90;46.60;;;;;;5086236;28;45441;-66
2023/09/25 02:50:47;;;;;;;1.35;0.73;;;19.90;47.20;;;;;;5086516;28;45565;-65
2023/09/25 02:53:15;;;;;;;1.77;0.80;;;19.90;46.60;;;;;;5084937;28;45307;-66
2023/09/25 02:55:42;;;;;;;0.98;0.70;;;19.80;46.60;;;;;;5086135;28;45314;-65
2023/09/25 02:58:09;;;;;;;0.88;0.80;;;19.80;46.60;;;;;;5086277;28;45362;-65
2023/09/25 03:00:37;;;;;;;0.80;0.80;;;19.80;46.60;;;;;;5086421;28;45360;-65
2023/09/25 03:03:05;;;;;;;1.05;0.63;;;19.80;46.70;;;;;;5085877;27;45308;-66
2023/09/25 03:05:33;;;;;;;2.83;0.85;;;19.80;46.70;;;;;;5086114;27;45245;-66
2023/09/25 03:08:00;;;;;;;1.55;0.63;;;19.70;46.70;;;;;;5086222;27;45488;-65
2023/09/25 03:10:26;;;;;;;0.60;0.60;;;19.70;47.30;;;;;;5086174;28;45318;-66
2023/09/25 03:12:53;;;;;;;1.98;0.85;;;19.80;46.70;;;;;;5085817;28;46555;-66
2023/09/25 03:15:20;;;;;;;1.20;0.80;;;19.70;46.70;;;;;;5085989;28;45269;-65
2023/09/25 03:17:47;;;;;;;2.15;0.80;;;19.70;46.70;;;;;;5085889;28;45226;-65
2023/09/25 03:20:15;;;;;;;1.38;0.80;;;19.70;46.80;;;;;;5086110;28;45403;-66
2023/09/25 03:22:43;;;;;;;1.38;0.75;;;19.70;46.70;;;;;;5085593;28;45554;-65
2023/09/25 03:25:11;;;;;;;0.88;0.70;;;19.70;46.70;;;;;;5085640;28;45246;-65
2023/09/25 03:27:38;;;;;;;0.70;0.70;;;19.60;46.70;;;;;;5085984;28;45355;-65
2023/09/25 03:30:06;;;;;;;1.00;0.70;;;19.60;46.80;;;;;;5086042;28;45368;-65
2023/09/25 03:32:33;;;;;;;0.85;0.60;;;19.60;46.80;;;;;;5085538;28;46368;-65
2023/09/25 03:35:00;;;;;;;1.48;1.00;;;19.60;46.80;;;;;;5085065;28;45096;-65
2023/09/25 03:37:27;;;;;;;2.00;0.80;;;19.60;46.80;;;;;;5085622;28;45305;-65
2023/09/25 03:39:55;;;;;;;1.20;0.70;;;19.60;46.80;;;;;;5085962;28;45344;-65
2023/09/25 03:42:22;;;;;;;0.75;0.70;;;19.60;46.80;;;;;;5085410;27;45455;-66
2023/09/25 03:44:50;;;;;;;1.23;0.73;;;19.60;46.80;;;;;;5085459;27;45398;-65
2023/09/25 03:47:18;;;;;;;0.82;0.70;;;19.60;46.80;;;;;;5085660;28;45382;-66
2023/09/25 03:49:44;;;;;;;1.35;0.70;;;19.60;46.80;;;;;;5085737;28;45348;-65
2023/09/25 03:52:11;;;;;;;0.50;0.50;;;19.60;46.80;;;;;;5085142;28;45494;-65
2023/09/25 03:54:38;;;;;;;1.05;0.60;;;19.60;46.80;;;;;;5085394;28;45260;-66
2023/09/25 03:57:06;;;;;;;0.98;0.75;;;19.60;46.80;;;;;;5085530;28;45318;-65
2023/09/25 03:59:33;;;;;;;0.77;0.70;;;19.50;46.80;;;;;;5085610;27;45374;-65
2023/09/25 04:02:00;;;;;;;1.05;0.70;;;19.60;46.80;;;;;;5085043;28;45363;-65
2023/09/25 04:04:28;;;;;;;1.45;0.90;;;19.50;46.80;;;;;;5086785;28;45337;-65
2023/09/25 04:06:54;;;;;;;1.00;0.60;;;19.50;46.80;;;;;;5088802;28;45271;-65
2023/09/25 04:09:21;;;;;;;0.70;0.70;;;19.50;46.80;;;;;;5088983;28;45171;-65
2023/09/25 04:11:48;;;;;;;1.30;0.73;;;19.50;46.90;;;;;;5088618;28;47258;-65
2023/09/25 04:14:17;;;;;;;0.52;0.52;;;19.40;46.80;;;;;;5088540;28;45233;-65
2023/09/25 04:16:45;;;;;;;1.23;0.80;;;19.40;46.80;;;;;;5088810;28;45378;-66
2023/09/25 04:19:12;;;;;;;0.68;0.60;;;19.40;46.90;;;;;;5088738;28;45445;-65
2023/09/25 04:21:39;;;;;;;1.65;0.75;;;19.40;46.90;;;;;;5088630;28;47646;-65
2023/09/25 04:24:10;;;;;;;0.93;0.80;;;19.40;46.90;;;;;;5088379;28;45407;-65
2023/09/25 04:26:39;;;;;;;0.90;0.80;;;19.40;47.50;;;;;;5088592;27;45228;-65
2023/09/25 04:29:09;;;;;;;1.55;0.82;;;19.40;46.90;;;;;;5088863;27;45408;-65
2023/09/25 04:31:38;;;;;;;0.80;0.80;;;19.40;46.90;;;;;;5088157;28;45519;-65
2023/09/25 04:34:05;;;;;;;0.98;0.80;;;19.40;46.90;;;;;;5088218;28;45344;-65
2023/09/25 04:36:32;;;;;;;0.65;0.60;;;19.40;46.90;;;;;;5088342;28;45317;-65
2023/09/25 04:38:59;;;;;;;1.13;0.82;;;19.40;46.90;;;;;;5088728;28;45466;-65
2023/09/25 04:41:26;;;;;;;1.38;0.73;;;19.30;46.90;;;;;;5088187;28;45371;-66
2023/09/25 04:43:54;;;;;;;2.08;0.70;;;19.30;46.90;;;;;;5088019;28;45229;-65
2023/09/25 04:46:20;;;;;;;0.95;0.75;;;19.30;46.90;;;;;;5085584;27;45265;-65
2023/09/25 04:48:51;;;;;;;1.52;0.80;;;19.30;46.90;;;;;;5088344;28;45421;-65
2023/09/25 04:51:19;;;;;;;0.60;0.60;;;19.30;46.90;;;;;;5088005;28;45710;-66
2023/09/25 04:53:46;;;;;;;0.65;0.50;;;19.30;46.90;;;;;;5087824;28;45320;-65
2023/09/25 04:56:20;;;;;;;0.75;0.75;;;19.20;46.90;;;;;;5088168;28;45394;-66
2023/09/25 04:58:46;;;;;;;1.58;0.50;;;19.20;46.90;;;;;;5088032;28;45597;-65
2023/09/25 05:01:13;;;;;;;0.70;0.70;;;19.20;46.90;;;;;;5087843;27;45592;-65
2023/09/25 05:03:41;;;;;;;0.88;0.60;;;19.20;47.00;;;;;;5087707;28;45318;-65
2023/09/25 05:06:10;;;;;;;1.83;0.95;;;19.20;47.00;;;;;;5087881;28;45184;-66
2023/09/25 05:08:38;;;;;;;1.45;0.82;;;19.20;46.90;;;;;;5088108;27;45415;-66
2023/09/25 05:11:05;;;;;;;1.50;0.80;;;19.10;46.90;;;;;;5087613;27;45261;-65
2023/09/25 05:13:32;;;;;;;1.38;0.70;;;19.10;46.90;;;;;;5087547;28;45319;-65
2023/09/25 05:15:59;;;;;;;2.22;0.90;;;19.10;47.00;;;;;;5086911;27;45375;-64
2023/09/25 05:18:26;;;;;;;0.70;0.70;;;19.10;47.00;;;;;;5087815;28;45297;-65
2023/09/25 05:20:53;;;;;;;1.80;0.75;;;19.10;46.90;;;;;;5087396;28;46383;-65
2023/09/25 05:23:21;;;;;;;0.60;0.60;;;19.10;47.00;;;;;;5087446;28;45315;-66
2023/09/25 05:25:48;;;;;;;0.80;0.80;;;19.10;46.90;;;;;;5087483;28;45200;-64
2023/09/25 05:28:14;;;;;;;1.33;0.80;;;19.00;47.00;;;;;;5087794;28;45328;-65
2023/09/25 05:30:41;;;;;;;3.15;0.60;;;19.00;47.00;;;;;;5087406;28;45229;-64
2023/09/25 05:33:08;;;;;;;1.10;0.77;;;19.00;47.00;;;;;;5087207;28;45361;-65
2023/09/25 05:35:35;;;;;;;1.17;0.80;;;19.00;47.00;;;;;;5087081;28;45322;-64
2023/09/25 05:38:02;;;;;;;3.35;0.80;;;19.00;47.10;;;;;;5087592;28;45322;-66
2023/09/25 05:40:30;;;;;;;1.10;0.80;;;19.00;47.10;;;;;;5087057;28;48262;-65
2023/09/25 05:42:57;;;;;;;1.20;0.90;;;19.00;47.10;;;;;;5087232;28;46145;-66
2023/09/25 05:45:24;;;;;;;1.23;0.60;;;19.00;47.10;;;;;;5087256;28;45288;-66
2023/09/25 05:47:51;;;;;;;0.82;0.82;;;19.00;47.10;;;;;;5087398;28;45297;-66
2023/09/25 05:50:17;;;;;;;0.82;0.73;;;19.00;47.10;;;;;;5086934;28;46390;-66
2023/09/25 05:52:44;;;;;;;0.88;0.88;;;18.90;47.00;;;;;;5086955;28;45374;-65
2023/09/25 05:55:11;;;;;;;0.57;0.57;;;18.90;47.10;;;;;;5087228;28;45309;-65
2023/09/25 05:57:39;;;;;;;0.98;0.80;;;18.90;47.10;;;;;;5087202;28;45316;-67
2023/09/25 06:00:12;;;;;;;1.17;0.77;;;18.90;47.10;;;;;;5086849;28;46499;-65
2023/09/25 06:02:39;;;;;;;0.85;0.70;;;18.90;47.20;;;;;;5086896;28;46388;-66
2023/09/25 06:05:07;;;;;;;0.70;0.70;;;18.90;47.20;;;;;;5087110;27;45311;-65
2023/09/25 06:07:33;;;;;;;0.50;0.50;;;18.90;47.20;;;;;;5087173;27;45220;-65
2023/09/25 06:10:01;;;;;;;1.20;0.80;;;18.90;47.20;;;;;;5086666;28;45606;-65
2023/09/25 06:12:28;;;;;;;0.98;0.70;;;18.90;47.20;;;;;;5086604;27;45373;-66
2023/09/25 06:14:56;;;;;;;0.80;0.70;;;18.80;47.20;;;;;;5086742;28;45322;-66
2023/09/25 06:17:26;;;;;;;1.80;0.80;;;18.80;47.20;;;;;;5087111;28;45391;-65
2023/09/25 06:19:54;;;;;;;1.25;0.63;;;18.80;47.30;;;;;;5086676;28;46511;-65
2023/09/25 06:22:21;;;;;;;1.13;0.80;;;18.80;47.30;;;;;;5086442;27;45308;-65
2023/09/25 06:24:48;;;;;;;1.95;0.88;;;18.80;47.30;;;;;;5086631;28;45207;-66
2023/09/25 06:27:15;;;;;;;0.73;0.70;;;18.80;47.30;;;;;;5086481;27;45577;-65
2023/09/25 06:29:42;;;;;;;0.65;0.65;;;18.80;47.20;;;;;;5086243;28;45419;-65
2023/09/25 06:32:11;;;;;;;0.70;0.65;;;18.80;47.30;;;;;;5086281;28;45311;-66
2023/09/25 06:34:38;;;;;;;1.33;0.88;;;18.80;47.30;;;;;;5086391;27;45284;-66
2023/09/25 06:37:06;;;;;;;0.90;0.80;;;18.80;47.30;;;;;;5086665;27;45644;-65
2023/09/25 06:39:33;;;;;;;0.82;0.70;;;18.80;47.20;;;;;;5086317;28;45340;-65
2023/09/25 06:42:01;;;;;;;1.35;0.88;;;18.80;47.30;;;;;;5086221;28;45340;-66
2023/09/25 06:44:28;;;;;;;1.67;0.60;;;18.80;47.30;;;;;;5086502;27;45338;-65
2023/09/25 06:46:55;;;;;;;0.90;0.77;;;18.80;47.30;;;;;;5086461;27;45479;-65
2023/09/25 06:49:24;;;;;;;0.75;0.75;;;18.80;47.30;;;;;;5086176;28;46568;-65
2023/09/25 06:51:50;;;;;;;3.97;0.88;;;18.80;47.20;;;;;;5085950;28;45400;-65
2023/09/25 06:54:17;;;;;;;1.65;0.70;;;18.80;47.20;;;;;;5086250;28;45249;-65
2023/09/25 06:56:44;;;;;;;1.05;0.70;;;18.80;47.20;;;;;;5086421;28;45643;-66
2023/09/25 06:59:11;;;;;;;1.15;0.70;;;18.80;47.20;;;;;;5099296;27;46353;-65
2023/09/25 07:01:38;;;;;;;2.38;0.80;;;18.80;47.20;;;;;;5106644;27;45378;-67
2023/09/25 07:04:06;;;;;;;1.15;0.60;;;18.80;47.20;;;;;;5106504;27;45314;-66
2023/09/25 07:06:35;;;;;;;0.77;0.68;;;18.80;47.20;;;;;;5106671;27;45322;-65
2023/09/25 07:09:03;;;;;;;0.82;0.70;;;18.80;47.20;;;;;;5106424;27;46676;-66
2023/09/25 07:11:30;;;;;;;0.70;0.70;;;18.80;47.20;;;;;;5106548;27;45255;-65
2023/09/25 07:13:56;;;;;;;0.80;0.80;;;18.80;47.20;;;;;;5106162;27;45250;-64
2023/09/25 07:16:23;;;;;;;1.75;0.80;;;18.80;47.20;;;;;;5106182;27;45414;-65
2023/09/25 07:18:50;;;;;;;0.70;0.70;;;18.80;47.30;;;;;;5106051;27;45514;-66
2023/09/25 07:21:17;;;;;;;1.08;0.70;;;18.80;47.30;;;;;;5106164;27;45418;-65
2023/09/25 07:23:46;;;;;;;1.48;0.80;;;18.80;47.30;;;;;;5106298;27;45472;-66
2023/09/25 07:26:15;;;;;;;0.90;0.88;;;18.80;47.30;;;;;;5106407;27;45446;-65
2023/09/25 07:28:48;;;;;;;1.60;0.90;;;18.80;47.30;;;;;;5105997;27;46393;-66
2023/09/25 07:31:19;;;;;;;2.80;1.08;;;18.80;47.90;;;;;;5106255;27;45138;-66
2023/09/25 07:33:46;;;;;;;1.20;1.10;;;18.80;47.30;;;;;;5106054;27;45301;-67
2023/09/25 07:36:18;;;;;;;1.92;0.82;;;18.90;47.30;;;;;;5106131;27;45319;-66
2023/09/25 07:38:46;;;;;;;4.30;1.00;;;18.80;47.20;;;;;;5106702;27;46510;-67
2023/09/25 07:41:13;;;;;;;3.58;0.95;;;18.90;47.30;;;;;;5109703;27;45187;-66
2023/09/25 07:43:39;;;;;;;1.23;0.90;;;18.90;47.30;;;;;;5109840;27;45344;-66
2023/09/25 07:46:07;;;;;;;0.90;0.90;;;18.90;47.30;;;;;;5109950;27;45368;-68
2023/09/25 07:48:37;;;;;;;2.58;1.25;;;18.90;47.30;;;;;;5109578;27;45434;-67
2023/09/25 07:51:04;;;;;;;3.55;1.10;;;18.90;47.60;;;;;;5109945;27;45510;-67
2023/09/25 07:53:31;;;;;;;1.33;1.15;;;19.00;47.60;;;;;;5109653;27;45404;-68
2023/09/25 07:55:59;;;;;;;2.00;1.27;;;19.00;47.50;;;;;;5109885;27;45292;-66
2023/09/25 07:58:28;;;;;;;1.98;1.05;;;19.00;47.50;;;;;;5106815;27;45322;-66
2023/09/25 08:01:00;;;;;;;1.70;1.15;;;19.00;47.50;;;;;;5109496;27;45181;-67
2023/09/25 08:03:27;;;;;;;3.28;1.33;;;19.00;47.50;;;;;;5109547;27;45322;-66
2023/09/25 08:05:54;;;;;;;1.70;1.13;;;19.00;47.50;;;;;;5109728;27;45569;-66
2023/09/25 08:08:21;;;;;;;2.28;1.15;;;19.00;47.50;;;;;;5106732;27;46121;-68
2023/09/25 08:10:48;;;;;;;1.48;1.17;;;19.10;47.50;;;;;;5109302;27;45381;-66
2023/09/25 08:13:18;;;;;;;1.08;0.98;;;19.10;47.60;;;;;;5108682;27;45392;-66
2023/09/25 08:15:45;;;;;;;2.60;1.10;;;19.10;47.50;;;;;;5109345;27;45260;-67
2023/09/25 08:18:11;;;;;;;2.47;1.30;;;19.10;47.50;;;;;;5108891;27;46412;-67
2023/09/25 08:20:39;;;;;;;1.35;0.95;;;19.10;47.50;;;;;;5108730;27;45302;-66
2023/09/25 08:23:07;;;;;;;1.95;1.05;;;19.10;47.60;;;;;;5108806;27;45309;-67
2023/09/25 08:25:34;;;;;;;2.65;0.95;;;19.10;47.60;;;;;;5108945;27;45561;-66
2023/09/25 08:28:01;;;;;;;2.75;1.15;;;19.10;47.60;;;;;;5108375;27;45383;-68
2023/09/25 08:30:31;;;;;;;1.75;1.05;;;19.10;47.60;;;;;;5108642;27;45314;-66
2023/09/25 08:32:58;;;;;;;1.13;1.02;;;19.20;47.60;;;;;;5105840;27;45318;-66
2023/09/25 08:35:25;;;;;;;1.35;1.00;;;19.20;47.50;;;;;;5108526;27;45430;-67
2023/09/25 08:37:52;;;;;;;0.90;0.90;;;19.20;47.50;;;;;;5108266;27;46396;-67
2023/09/25 08:40:19;;;;;;;1.50;1.08;;;19.20;47.50;;;;;;5108922;27;45287;-66
2023/09/25 08:42:46;;;;;;;2.88;1.15;;;19.20;47.50;;;;;;5108510;27;45312;-66
2023/09/25 08:45:14;;;;;;;1.13;1.02;;;19.20;47.50;;;;;;5108515;27;45532;-68
2023/09/25 08:47:42;;;;;;;1.70;1.10;;;19.30;47.50;;;;;;5107963;27;45388;-67
2023/09/25 08:50:10;;;;;;;1.20;1.10;;;19.30;47.60;;;;;;5107085;27;45350;-66
2023/09/25 08:52:37;;;;;;;1.17;1.08;;;19.30;47.60;;;;;;5108332;27;45252;-66
2023/09/25 08:55:05;;;;;;;1.05;1.00;;;19.30;47.60;;;;;;5108871;27;45472;-66
2023/09/25 08:57:32;;;;;;;3.20;1.10;;;19.30;47.60;;;;;;5108627;27;47318;-67
2023/09/25 08:59:59;;;;;;;2.58;0.98;;;19.30;47.50;;;;;;5108257;27;45370;-64
2023/09/25 09:02:26;;;;;;;2.45;0.98;;;19.30;47.50;;;;;;5108025;27;45419;-67
2023/09/25 09:04:54;;;;;;;0.90;0.70;;;19.40;47.60;;;;;;5108249;27;45489;-67
2023/09/25 09:07:21;;;;;;;0.93;0.93;;;19.30;47.50;;;;;;5107918;27;45396;-67
2023/09/25 09:09:48;;;;;;;1.05;0.85;;;19.40;47.50;;;;;;5108121;27;45407;-66
2023/09/25 09:12:15;;;;;;;1.08;0.90;;;19.40;47.50;;;;;;5108005;27;45481;-67
2023/09/25 09:14:42;;;;;;;1.40;0.85;;;19.40;47.50;;;;;;5108153;27;45529;-67
2023/09/25 09:17:10;;;;;;;2.22;1.00;;;19.40;47.40;;;;;;5107341;27;46411;-66
2023/09/25 09:19:38;;;;;;;1.65;0.98;;;19.50;47.50;;;;;;5108351;27;45359;-66
2023/09/25 09:22:07;;;;;;;1.80;1.08;;;19.50;47.50;;;;;;5108312;27;45496;-67
2023/09/25 09:24:35;;;;;;;1.20;1.10;;;19.50;47.40;;;;;;5108327;27;45407;-66
2023/09/25 09:27:07;;;;;;;1.25;1.00;;;19.50;47.40;;;;;;5108247;27;46741;-66
2023/09/25 09:29:35;;;;;;;1.45;1.00;;;19.60;47.50;;;;;;5108183;27;45209;-66
2023/09/25 09:32:02;;;;;;;1.00;0.93;;;19.60;47.50;;;;;;5108065;27;45374;-66
2023/09/25 09:34:29;;;;;;;0.93;0.88;;;19.60;47.50;;;;;;5108003;27;45349;-66
2023/09/25 09:36:56;;;;;;;0.90;0.90;;;19.60;47.40;;;;;;5107918;27;46929;-66
2023/09/25 09:39:25;;;;;;;1.20;1.00;;;19.70;47.40;;;;;;5108522;27;45354;-67
2023/09/25 09:41:52;;;;;;;1.23;1.00;;;19.70;47.40;;;;;;5108199;27;45401;-68
2023/09/25 09:44:19;;;;;;;0.90;0.90;;;19.70;47.30;;;;;;5108237;27;45370;-67
2023/09/25 09:46:47;;;;;;;1.10;1.00;;;19.80;47.30;;;;;;5107705;27;46711;-66
2023/09/25 09:49:16;;;;;;;1.40;1.00;;;19.80;47.30;;;;;;5107189;27;45191;-66
2023/09/25 09:51:44;;;;;;;1.10;1.00;;;19.80;47.30;;;;;;5108169;27;45365;-67
2023/09/25 09:54:12;;;;;;;1.55;1.00;;;19.90;47.30;;;;;;5107938;27;45353;-69
2023/09/25 09:56:40;;;;;;;1.92;1.05;;;19.90;47.30;;;;;;5107793;27;45322;-67
2023/09/25 09:59:07;;;;;;;0.90;0.90;;;19.90;47.30;;;;;;5107375;27;45664;-68
2023/09/25 10:01:34;;;;;;;1.27;1.00;;;20.00;47.30;;;;;;5107402;27;45378;-68
2023/09/25 10:04:01;;;;;;;1.77;0.95;;;20.00;47.30;;;;;;5107840;27;45279;-68
2023/09/25 10:06:29;;;;;;;2.78;1.10;;;20.00;47.30;;;;;;5107582;27;45355;-68
2023/09/25 10:09:03;;;;;;;4.05;1.30;;;20.10;47.40;;;;;;5107406;27;45337;-67
2023/09/25 10:11:30;;;;;;;1.58;0.85;;;20.10;47.40;;;;;;5107697;27;45322;-69
2023/09/25 10:14:00;;;;;;;1.33;0.90;;;20.20;47.40;;;;;;5107628;27;45481;-68
2023/09/25 10:16:29;;;;;;;2.80;1.83;;;20.30;47.40;;;;;;5107377;27;46399;-68
2023/09/25 10:18:56;;;;;;;2.97;1.20;;;20.30;47.30;;;;;;5107301;27;45306;-67
2023/09/25 10:21:23;;;;;;;3.05;0.98;;;20.40;47.30;;;;;;5106665;27;45531;-67
2023/09/25 10:23:51;;;;;;;2.92;0.80;;;20.40;47.30;;;;;;5107118;27;45420;-66
2023/09/25 10:26:19;;;;;;;2.05;0.90;;;20.50;47.30;;;;;;5106911;27;45604;-66
2023/09/25 10:29:13;;;;;;;5.60;0.95;;;20.50;47.20;;;;;;5106699;27;45325;-67
2023/09/25 10:31:42;;;;;;;0.80;0.80;;;20.60;47.10;;;;;;5107134;27;45317;-66
2023/09/25 10:34:09;;;;;;;2.20;1.00;;;20.60;47.10;;;;;;5107007;27;45348;-66
2023/09/25 10:36:37;;;;;;;3.08;0.93;;;20.70;47.10;;;;;;5106348;27;46394;-67
2023/09/25 10:39:07;;;;;;;2.05;1.10;;;20.70;47.00;;;;;;5106882;27;45346;-68
2023/09/25 10:41:33;;;;;;;1.30;1.10;;;20.80;47.00;;;;;;5107164;27;45390;-66
2023/09/25 10:44:01;;;;;;;2.67;0.85;;;20.80;46.80;;;;;;5107288;27;45608;-66
2023/09/25 10:46:30;;;;;;;1.00;0.90;;;20.90;46.80;;;;;;5107167;27;46298;-66
2023/09/25 10:48:57;;;;;;;1.10;0.95;;;21.00;46.80;;;;;;5106921;27;45099;-66
2023/09/25 10:51:24;;;;;;;1.67;0.80;;;21.10;46.80;;;;;;5107389;27;45329;-66
2023/09/25 10:53:51;;;;;;;3.95;1.00;;;21.10;46.70;;;;;;5107386;27;45644;-66
2023/09/25 10:56:18;;;;;;;1.10;1.00;;;21.20;46.60;;;;;;5106816;27;45359;-67
2023/09/25 10:58:52;;;;;;;1.17;0.80;;;21.30;46.60;;;;;;5106673;27;45319;-66
2023/09/25 11:01:24;;;;;;;2.30;1.10;;;21.40;46.50;;;;;;5106929;27;45341;-66
2023/09/25 11:03:52;;;;;;;1.73;1.00;;;21.40;46.40;;;;;;5107079;27;45461;-67
2023/09/25 11:06:19;;;;;;;3.00;1.10;;;21.50;46.30;;;;;;5106883;27;45199;-66
2023/09/25 11:08:47;;;;;;;1.15;0.98;;;21.60;46.20;;;;;;5107020;27;45314;-66
2023/09/25 11:11:14;;;;;;;2.17;1.30;;;21.70;46.00;;;;;;5107073;27;45225;-68
2023/09/25 11:13:41;;;;;;;1.85;0.93;;;21.80;46.00;;;;;;5106016;27;45442;-66
2023/09/25 11:16:08;;;;;;;1.42;1.00;;;21.90;45.80;;;;;;5106182;27;46639;-67
2023/09/25 11:18:35;;;;;;;1.20;1.10;;;21.90;45.60;;;;;;5105964;27;46531;-67
2023/09/25 11:21:03;;;;;;;1.10;0.98;;;22.00;45.60;;;;;;5106492;27;45335;-65
2023/09/25 11:23:33;;;;;;;3.30;1.13;;;22.10;45.60;;;;;;5106274;27;45480;-66
2023/09/25 11:26:00;;;;;;;1.15;1.02;;;22.20;45.40;;;;;;5106048;27;45566;-66
2023/09/25 11:28:27;;;;;;;1.85;0.90;;;22.20;45.30;;;;;;5106010;27;45334;-66
2023/09/25 11:30:54;;;;;;;2.15;0.80;;;22.30;45.10;;;;;;5106764;27;45284;-67
2023/09/25 11:33:23;;;;;;;1.30;0.88;;;22.40;45.00;;;;;;5106802;27;45370;-66
2023/09/25 11:35:50;;;;;;;2.45;1.25;;;22.50;45.00;;;;;;5105908;27;46373;-66
2023/09/25 11:38:21;;;;;;;1.27;0.93;;;22.50;44.80;;;;;;5106408;27;45325;-66
2023/09/25 11:40:50;;;;;;;1.90;1.20;;;22.60;44.80;;;;;;5106804;27;45268;-66
2023/09/25 11:43:16;;;;;;;0.98;0.70;;;22.60;44.70;;;;;;5106767;27;45366;-67
2023/09/25 11:45:43;;;;;;;1.30;0.93;;;22.70;44.60;;;;;;5106351;27;45407;-67
2023/09/25 11:48:11;;;;;;;2.80;0.80;;;22.70;44.50;;;;;;5106252;27;45362;-66
2023/09/25 11:50:38;;;;;;;1.40;1.15;;;22.80;44.50;;;;;;5104031;27;45348;-67
2023/09/25 11:53:06;;;;;;;1.10;1.10;;;22.90;44.50;;;;;;5106729;27;45196;-66
2023/09/25 11:55:34;;;;;;;1.23;1.13;;;22.90;44.40;;;;;;5106390;27;45424;-66
2023/09/25 11:58:00;;;;;;;2.25;1.20;;;23.00;44.30;;;;;;5106237;27;45499;-66
2023/09/25 12:00:27;;;;;;;1.48;1.00;;;23.10;44.20;;;;;;5106471;27;45406;-67
2023/09/25 12:02:54;;;;;;;1.35;1.00;;;23.10;44.10;;;;;;5106352;27;45377;-66
2023/09/25 12:05:21;;;;;;;1.30;1.20;;;23.20;43.90;;;;;;5106261;27;45293;-68
2023/09/25 12:07:48;;;;;;;1.50;1.30;;;23.20;43.70;;;;;;5105788;27;45333;-66
2023/09/25 12:10:16;;;;;;;1.52;1.33;;;23.30;43.90;;;;;;5105858;27;45361;-67
2023/09/25 12:12:45;;;;;;;1.42;1.33;;;23.40;44.00;;;;;;5104798;27;45442;-67
2023/09/25 12:15:12;;;;;;;6.97;1.30;;;23.50;44.10;;;;;;5105059;27;46404;-64
2023/09/25 12:17:39;;;;;;;1.50;1.20;;;23.50;44.80;;;;;;5105728;27;45327;-66
2023/09/25 12:20:11;;;;;;;1.85;0.85;;;23.60;43.40;;;;;;5105319;27;45474;-68
2023/09/25 12:22:39;;;;;;;1.15;1.02;;;23.60;43.10;;;;;;5105010;27;45350;-68
2023/09/25 12:25:09;;;;;;;1.42;1.33;;;23.70;43.10;;;;;;5104260;27;46098;-65
2023/09/25 12:27:36;;;;;;;2.10;0.80;;;23.70;42.30;;;;;;5108386;27;45229;-64
2023/09/25 12:30:07;;;;;;;3.72;1.20;;;23.80;41.60;;;;;;5120210;27;45309;-67
2023/09/25 12:32:34;;;;;;;0.65;0.65;;;23.90;42.00;;;;;;5120750;27;45350;-68
2023/09/25 12:35:00;;;;;;;1.38;1.08;;;23.90;40.70;;;;;;5107966;27;45473;-66
2023/09/25 12:37:28;;;;;;;2.97;0.85;;;24.00;41.70;;;;;;5108278;27;45401;-65
2023/09/25 12:39:55;;;;;;;13.70;2.65;;;24.10;42.30;;;;;;5108665;27;45419;-66
2023/09/25 12:42:22;;;;;;;2.17;0.70;;;24.10;42.80;;;;;;5108638;27;45350;-65
2023/09/25 12:44:49;;;;;;;6.65;0.90;;;24.10;42.60;;;;;;5107432;27;46459;-65
2023/09/25 12:47:17;;;;;;;0.50;0.50;;;24.20;41.80;;;;;;5108260;27;45259;-65